sensor_id;sensor_type;location;lat;lon;timestamp;P1;durP1;ratioP1;P2;durP2;ratioP2
34200;SDS011;20469;55.638;37.670;2023-12-20T00:02:03;2.08;;;1.70;;
34200;SDS011;20469;55.638;37.670;2023-12-20T00:04:31;2.55;;;1.63;;
34200;SDS011;20469;55.638;37.670;2023-12-20T00:06:59;3.00;;;1.88;;
34200;SDS011;20469;55.638;37.670;2023-12-20T00:09:28;2.40;;;1.60;;
34200;SDS011;20469;55.638;37.670;2023-12-20T00:11:55;3.80;;;1.95;;
34200;SDS011;20469;55.638;37.670;2023-12-20T00:14:23;3.13;;;1.50;;
34200;SDS011;20469;55.638;37.670;2023-12-20T00:16:51;3.08;;;1.80;;
34200;SDS011;20469;55.638;37.670;2023-12-20T00:19:19;3.55;;;2.22;;
34200;SDS011;20469;55.638;37.670;2023-12-20T00:21:47;2.22;;;1.80;;
34200;SDS011;20469;55.638;37.670;2023-12-20T00:24:15;4.78;;;1.98;;
34200;SDS011;20469;55.638;37.670;2023-12-20T00:26:43;4.25;;;2.30;;
34200;SDS011;20469;55.638;37.670;2023-12-20T00:29:11;2.90;;;2.03;;
34200;SDS011;20469;55.638;37.670;2023-12-20T00:31:38;2.72;;;2.10;;
34200;SDS011;20469;55.638;37.670;2023-12-20T00:34:06;4.82;;;2.22;;
34200;SDS011;20469;55.638;37.670;2023-12-20T00:36:34;3.72;;;2.20;;
34200;SDS011;20469;55.638;37.670;2023-12-20T00:39:02;4.10;;;2.15;;
34200;SDS011;20469;55.638;37.670;2023-12-20T00:41:31;3.95;;;2.42;;
34200;SDS011;20469;55.638;37.670;2023-12-20T00:43:59;4.55;;;2.60;;
34200;SDS011;20469;55.638;37.670;2023-12-20T00:46:27;4.00;;;2.45;;
34200;SDS011;20469;55.638;37.670;2023-12-20T00:48:55;3.80;;;2.50;;
34200;SDS011;20469;55.638;37.670;2023-12-20T00:51:23;4.82;;;2.47;;
34200;SDS011;20469;55.638;37.670;2023-12-20T00:53:51;3.90;;;2.58;;
34200;SDS011;20469;55.638;37.670;2023-12-20T00:56:21;4.28;;;2.50;;
34200;SDS011;20469;55.638;37.670;2023-12-20T00:58:49;6.60;;;2.40;;
34200;SDS011;20469;55.638;37.670;2023-12-20T01:01:17;3.58;;;2.20;;
34200;SDS011;20469;55.638;37.670;2023-12-20T01:03:45;2.42;;;2.15;;
34200;SDS011;20469;55.638;37.670;2023-12-20T01:06:15;2.20;;;1.80;;
34200;SDS011;20469;55.638;37.670;2023-12-20T01:08:43;4.15;;;2.20;;
34200;SDS011;20469;55.638;37.670;2023-12-20T01:11:10;3.33;;;2.10;;
34200;SDS011;20469;55.638;37.670;2023-12-20T01:13:38;2.22;;;2.00;;
34200;SDS011;20469;55.638;37.670;2023-12-20T01:16:06;2.55;;;2.15;;
34200;SDS011;20469;55.638;37.670;2023-12-20T01:18:34;2.65;;;2.20;;
34200;SDS011;20469;55.638;37.670;2023-12-20T01:21:04;4.38;;;2.35;;
34200;SDS011;20469;55.638;37.670;2023-12-20T01:23:33;3.28;;;2.35;;
34200;SDS011;20469;55.638;37.670;2023-12-20T01:26:00;2.63;;;2.33;;
34200;SDS011;20469;55.638;37.670;2023-12-20T01:28:29;3.25;;;2.40;;
34200;SDS011;20469;55.638;37.670;2023-12-20T01:30:57;2.92;;;2.35;;
34200;SDS011;20469;55.638;37.670;2023-12-20T01:33:25;2.60;;;2.40;;
34200;SDS011;20469;55.638;37.670;2023-12-20T01:35:53;3.83;;;2.08;;
34200;SDS011;20469;55.638;37.670;2023-12-20T01:38:21;2.70;;;2.15;;
34200;SDS011;20469;55.638;37.670;2023-12-20T01:40:48;3.30;;;2.20;;
34200;SDS011;20469;55.638;37.670;2023-12-20T01:43:16;3.15;;;2.03;;
34200;SDS011;20469;55.638;37.670;2023-12-20T01:45:44;2.53;;;1.73;;
34200;SDS011;20469;55.638;37.670;2023-12-20T01:48:13;2.55;;;1.95;;
34200;SDS011;20469;55.638;37.670;2023-12-20T01:50:43;3.78;;;1.83;;
34200;SDS011;20469;55.638;37.670;2023-12-20T01:53:12;2.72;;;1.70;;
34200;SDS011;20469;55.638;37.670;2023-12-20T01:55:40;2.20;;;1.55;;
34200;SDS011;20469;55.638;37.670;2023-12-20T01:58:08;2.33;;;1.80;;
34200;SDS011;20469;55.638;37.670;2023-12-20T02:00:37;3.33;;;1.42;;
34200;SDS011;20469;55.638;37.670;2023-12-20T02:03:06;3.05;;;1.65;;
34200;SDS011;20469;55.638;37.670;2023-12-20T02:05:34;1.88;;;1.35;;
34200;SDS011;20469;55.638;37.670;2023-12-20T02:08:03;2.78;;;1.40;;
34200;SDS011;20469;55.638;37.670;2023-12-20T02:10:32;1.90;;;1.10;;
34200;SDS011;20469;55.638;37.670;2023-12-20T02:13:00;3.70;;;1.15;;
34200;SDS011;20469;55.638;37.670;2023-12-20T02:15:28;1.80;;;1.05;;
34200;SDS011;20469;55.638;37.670;2023-12-20T02:17:56;1.65;;;0.98;;
34200;SDS011;20469;55.638;37.670;2023-12-20T02:20:44;2.20;;;0.85;;
34200;SDS011;20469;55.638;37.670;2023-12-20T02:23:12;2.53;;;1.30;;
34200;SDS011;20469;55.638;37.670;2023-12-20T02:25:40;1.20;;;0.90;;
34200;SDS011;20469;55.638;37.670;2023-12-20T02:28:07;3.63;;;1.13;;
34200;SDS011;20469;55.638;37.670;2023-12-20T02:30:36;2.28;;;1.02;;
34200;SDS011;20469;55.638;37.670;2023-12-20T02:33:06;1.88;;;0.80;;
34200;SDS011;20469;55.638;37.670;2023-12-20T02:35:35;1.30;;;0.90;;
34200;SDS011;20469;55.638;37.670;2023-12-20T02:38:03;1.77;;;0.82;;
34200;SDS011;20469;55.638;37.670;2023-12-20T02:40:31;1.00;;;0.90;;
34200;SDS011;20469;55.638;37.670;2023-12-20T02:42:59;1.92;;;0.90;;
34200;SDS011;20469;55.638;37.670;2023-12-20T02:45:27;2.22;;;1.00;;
34200;SDS011;20469;55.638;37.670;2023-12-20T02:47:55;3.58;;;1.30;;
34200;SDS011;20469;55.638;37.670;2023-12-20T02:50:23;2.00;;;1.20;;
34200;SDS011;20469;55.638;37.670;2023-12-20T02:52:51;1.90;;;1.20;;
34200;SDS011;20469;55.638;37.670;2023-12-20T02:55:19;2.00;;;1.15;;
34200;SDS011;20469;55.638;37.670;2023-12-20T02:57:47;3.78;;;1.20;;
34200;SDS011;20469;55.638;37.670;2023-12-20T03:00:15;2.55;;;1.33;;
34200;SDS011;20469;55.638;37.670;2023-12-20T03:02:42;2.45;;;1.30;;
34200;SDS011;20469;55.638;37.670;2023-12-20T03:05:10;2.63;;;1.52;;
34200;SDS011;20469;55.638;37.670;2023-12-20T03:07:38;3.75;;;2.15;;
34200;SDS011;20469;55.638;37.670;2023-12-20T03:10:06;3.40;;;2.05;;
34200;SDS011;20469;55.638;37.670;2023-12-20T03:12:46;4.22;;;1.88;;
34200;SDS011;20469;55.638;37.670;2023-12-20T03:15:14;4.95;;;2.17;;
34200;SDS011;20469;55.638;37.670;2023-12-20T03:17:42;3.38;;;2.22;;
34200;SDS011;20469;55.638;37.670;2023-12-20T03:20:11;3.83;;;2.30;;
34200;SDS011;20469;55.638;37.670;2023-12-20T03:22:39;4.72;;;2.30;;
34200;SDS011;20469;55.638;37.670;2023-12-20T03:25:07;5.07;;;2.80;;
34200;SDS011;20469;55.638;37.670;2023-12-20T03:27:36;4.75;;;2.65;;
34200;SDS011;20469;55.638;37.670;2023-12-20T03:30:06;3.35;;;2.15;;
34200;SDS011;20469;55.638;37.670;2023-12-20T03:32:33;3.50;;;2.22;;
34200;SDS011;20469;55.638;37.670;2023-12-20T03:35:02;4.70;;;2.30;;
34200;SDS011;20469;55.638;37.670;2023-12-20T03:37:30;4.95;;;2.33;;
34200;SDS011;20469;55.638;37.670;2023-12-20T03:39:58;4.22;;;2.50;;
34200;SDS011;20469;55.638;37.670;2023-12-20T03:42:26;4.05;;;2.63;;
34200;SDS011;20469;55.638;37.670;2023-12-20T03:44:53;3.53;;;2.70;;
34200;SDS011;20469;55.638;37.670;2023-12-20T03:47:21;6.60;;;2.72;;
34200;SDS011;20469;55.638;37.670;2023-12-20T03:49:49;5.47;;;2.72;;
34200;SDS011;20469;55.638;37.670;2023-12-20T03:52:17;4.57;;;2.85;;
34200;SDS011;20469;55.638;37.670;2023-12-20T03:54:45;6.72;;;2.78;;
34200;SDS011;20469;55.638;37.670;2023-12-20T03:57:13;6.72;;;3.30;;
34200;SDS011;20469;55.638;37.670;2023-12-20T03:59:41;3.70;;;2.38;;
34200;SDS011;20469;55.638;37.670;2023-12-20T04:02:08;4.45;;;2.90;;
34200;SDS011;20469;55.638;37.670;2023-12-20T04:04:36;4.72;;;2.92;;
34200;SDS011;20469;55.638;37.670;2023-12-20T04:07:04;4.45;;;3.45;;
34200;SDS011;20469;55.638;37.670;2023-12-20T04:09:32;4.53;;;3.45;;
34200;SDS011;20469;55.638;37.670;2023-12-20T04:12:00;8.75;;;4.00;;
34200;SDS011;20469;55.638;37.670;2023-12-20T04:14:28;5.20;;;3.20;;
34200;SDS011;20469;55.638;37.670;2023-12-20T04:16:56;7.03;;;3.50;;
34200;SDS011;20469;55.638;37.670;2023-12-20T04:19:23;7.18;;;3.70;;
34200;SDS011;20469;55.638;37.670;2023-12-20T04:21:51;5.45;;;3.47;;
34200;SDS011;20469;55.638;37.670;2023-12-20T04:24:19;7.70;;;4.18;;
34200;SDS011;20469;55.638;37.670;2023-12-20T04:26:47;7.88;;;4.13;;
34200;SDS011;20469;55.638;37.670;2023-12-20T04:29:15;6.32;;;4.28;;
34200;SDS011;20469;55.638;37.670;2023-12-20T04:31:43;6.55;;;4.30;;
34200;SDS011;20469;55.638;37.670;2023-12-20T04:34:11;6.78;;;4.32;;
34200;SDS011;20469;55.638;37.670;2023-12-20T04:36:39;6.20;;;4.43;;
34200;SDS011;20469;55.638;37.670;2023-12-20T04:39:07;8.55;;;4.53;;
34200;SDS011;20469;55.638;37.670;2023-12-20T04:41:34;7.80;;;4.47;;
34200;SDS011;20469;55.638;37.670;2023-12-20T04:44:02;7.20;;;4.15;;
34200;SDS011;20469;55.638;37.670;2023-12-20T04:46:30;7.00;;;4.10;;
34200;SDS011;20469;55.638;37.670;2023-12-20T04:48:58;5.75;;;3.97;;
34200;SDS011;20469;55.638;37.670;2023-12-20T04:51:26;6.88;;;3.63;;
34200;SDS011;20469;55.638;37.670;2023-12-20T04:53:54;4.45;;;3.40;;
34200;SDS011;20469;55.638;37.670;2023-12-20T04:56:21;6.82;;;2.88;;
34200;SDS011;20469;55.638;37.670;2023-12-20T04:58:49;4.13;;;2.45;;
34200;SDS011;20469;55.638;37.670;2023-12-20T05:01:17;3.47;;;2.08;;
34200;SDS011;20469;55.638;37.670;2023-12-20T05:03:45;3.90;;;1.73;;
34200;SDS011;20469;55.638;37.670;2023-12-20T05:06:13;5.78;;;2.00;;
34200;SDS011;20469;55.638;37.670;2023-12-20T05:08:41;4.97;;;1.98;;
34200;SDS011;20469;55.638;37.670;2023-12-20T05:11:09;3.08;;;1.77;;
34200;SDS011;20469;55.638;37.670;2023-12-20T05:13:37;3.25;;;1.90;;
34200;SDS011;20469;55.638;37.670;2023-12-20T05:16:15;3.47;;;2.33;;
34200;SDS011;20469;55.638;37.670;2023-12-20T05:18:46;2.55;;;2.00;;
34200;SDS011;20469;55.638;37.670;2023-12-20T05:21:14;6.90;;;2.17;;
34200;SDS011;20469;55.638;37.670;2023-12-20T05:23:42;6.72;;;2.45;;
34200;SDS011;20469;55.638;37.670;2023-12-20T05:26:10;4.88;;;2.72;;
34200;SDS011;20469;55.638;37.670;2023-12-20T05:28:38;3.45;;;2.67;;
34200;SDS011;20469;55.638;37.670;2023-12-20T05:31:06;5.70;;;2.90;;
34200;SDS011;20469;55.638;37.670;2023-12-20T05:33:35;6.70;;;3.22;;
34200;SDS011;20469;55.638;37.670;2023-12-20T05:36:05;4.95;;;3.55;;
34200;SDS011;20469;55.638;37.670;2023-12-20T05:38:38;5.78;;;3.50;;
34200;SDS011;20469;55.638;37.670;2023-12-20T05:41:05;7.05;;;3.63;;
34200;SDS011;20469;55.638;37.670;2023-12-20T05:43:33;6.53;;;3.80;;
34200;SDS011;20469;55.638;37.670;2023-12-20T05:46:01;6.18;;;4.05;;
34200;SDS011;20469;55.638;37.670;2023-12-20T05:48:29;6.25;;;3.28;;
34200;SDS011;20469;55.638;37.670;2023-12-20T05:50:57;5.40;;;3.50;;
34200;SDS011;20469;55.638;37.670;2023-12-20T05:53:25;6.03;;;3.80;;
34200;SDS011;20469;55.638;37.670;2023-12-20T05:55:53;4.82;;;3.28;;
34200;SDS011;20469;55.638;37.670;2023-12-20T05:58:21;6.68;;;3.53;;
34200;SDS011;20469;55.638;37.670;2023-12-20T06:00:49;6.47;;;4.00;;
34200;SDS011;20469;55.638;37.670;2023-12-20T06:03:17;6.47;;;3.65;;
34200;SDS011;20469;55.638;37.670;2023-12-20T06:05:45;5.75;;;3.05;;
34200;SDS011;20469;55.638;37.670;2023-12-20T06:08:14;5.90;;;3.38;;
34200;SDS011;20469;55.638;37.670;2023-12-20T06:10:41;6.03;;;3.60;;
34200;SDS011;20469;55.638;37.670;2023-12-20T06:13:09;4.93;;;3.20;;
34200;SDS011;20469;55.638;37.670;2023-12-20T06:15:39;7.45;;;3.60;;
34200;SDS011;20469;55.638;37.670;2023-12-20T06:18:07;5.47;;;3.50;;
34200;SDS011;20469;55.638;37.670;2023-12-20T06:20:35;4.78;;;3.03;;
34200;SDS011;20469;55.638;37.670;2023-12-20T06:23:03;6.82;;;3.33;;
34200;SDS011;20469;55.638;37.670;2023-12-20T06:25:31;5.63;;;3.20;;
34200;SDS011;20469;55.638;37.670;2023-12-20T06:27:59;9.43;;;3.72;;
34200;SDS011;20469;55.638;37.670;2023-12-20T06:30:29;7.03;;;3.13;;
34200;SDS011;20469;55.638;37.670;2023-12-20T06:32:59;3.88;;;2.95;;
34200;SDS011;20469;55.638;37.670;2023-12-20T06:35:27;6.22;;;3.97;;
34200;SDS011;20469;55.638;37.670;2023-12-20T06:37:56;4.80;;;2.95;;
34200;SDS011;20469;55.638;37.670;2023-12-20T06:40:24;3.58;;;2.47;;
34200;SDS011;20469;55.638;37.670;2023-12-20T06:42:53;5.28;;;3.30;;
34200;SDS011;20469;55.638;37.670;2023-12-20T06:45:34;6.22;;;2.63;;
34200;SDS011;20469;55.638;37.670;2023-12-20T06:48:02;3.85;;;2.65;;
34200;SDS011;20469;55.638;37.670;2023-12-20T06:50:29;5.20;;;2.55;;
34200;SDS011;20469;55.638;37.670;2023-12-20T06:52:57;4.97;;;2.95;;
34200;SDS011;20469;55.638;37.670;2023-12-20T06:55:25;5.18;;;2.88;;
34200;SDS011;20469;55.638;37.670;2023-12-20T06:57:53;6.80;;;3.13;;
34200;SDS011;20469;55.638;37.670;2023-12-20T07:00:21;5.10;;;2.85;;
34200;SDS011;20469;55.638;37.670;2023-12-20T07:02:50;3.88;;;2.75;;
34200;SDS011;20469;55.638;37.670;2023-12-20T07:05:18;6.45;;;3.10;;
34200;SDS011;20469;55.638;37.670;2023-12-20T07:07:47;8.00;;;2.95;;
34200;SDS011;20469;55.638;37.670;2023-12-20T07:10:15;5.22;;;2.90;;
34200;SDS011;20469;55.638;37.670;2023-12-20T07:12:44;8.15;;;3.15;;
34200;SDS011;20469;55.638;37.670;2023-12-20T07:15:12;6.00;;;3.22;;
34200;SDS011;20469;55.638;37.670;2023-12-20T07:17:40;5.22;;;3.20;;
34200;SDS011;20469;55.638;37.670;2023-12-20T07:20:08;4.70;;;2.70;;
34200;SDS011;20469;55.638;37.670;2023-12-20T07:22:37;6.72;;;2.60;;
34200;SDS011;20469;55.638;37.670;2023-12-20T07:25:06;7.22;;;2.70;;
34200;SDS011;20469;55.638;37.670;2023-12-20T07:27:34;4.18;;;2.38;;
34200;SDS011;20469;55.638;37.670;2023-12-20T07:30:02;5.65;;;2.97;;
34200;SDS011;20469;55.638;37.670;2023-12-20T07:32:31;7.13;;;2.70;;
34200;SDS011;20469;55.638;37.670;2023-12-20T07:34:59;4.65;;;2.58;;
34200;SDS011;20469;55.638;37.670;2023-12-20T07:37:29;5.43;;;2.40;;
34200;SDS011;20469;55.638;37.670;2023-12-20T07:39:57;4.25;;;2.40;;
34200;SDS011;20469;55.638;37.670;2023-12-20T07:42:26;4.00;;;2.03;;
34200;SDS011;20469;55.638;37.670;2023-12-20T07:44:53;3.63;;;2.03;;
34200;SDS011;20469;55.638;37.670;2023-12-20T07:47:22;3.80;;;2.30;;
34200;SDS011;20469;55.638;37.670;2023-12-20T07:49:52;3.97;;;2.53;;
34200;SDS011;20469;55.638;37.670;2023-12-20T07:52:20;5.53;;;2.72;;
34200;SDS011;20469;55.638;37.670;2023-12-20T07:54:51;2.65;;;1.83;;
34200;SDS011;20469;55.638;37.670;2023-12-20T07:57:19;4.72;;;2.20;;
34200;SDS011;20469;55.638;37.670;2023-12-20T07:59:47;3.83;;;2.20;;
34200;SDS011;20469;55.638;37.670;2023-12-20T08:02:16;4.43;;;2.25;;
34200;SDS011;20469;55.638;37.670;2023-12-20T08:04:43;3.90;;;2.10;;
34200;SDS011;20469;55.638;37.670;2023-12-20T08:07:12;3.42;;;2.20;;
34200;SDS011;20469;55.638;37.670;2023-12-20T08:09:40;6.13;;;2.55;;
34200;SDS011;20469;55.638;37.670;2023-12-20T08:12:07;7.40;;;2.55;;
34200;SDS011;20469;55.638;37.670;2023-12-20T08:14:36;3.25;;;1.92;;
34200;SDS011;20469;55.638;37.670;2023-12-20T08:17:04;4.57;;;2.28;;
34200;SDS011;20469;55.638;37.670;2023-12-20T08:19:32;6.03;;;2.53;;
34200;SDS011;20469;55.638;37.670;2023-12-20T08:22:01;7.18;;;2.83;;
34200;SDS011;20469;55.638;37.670;2023-12-20T08:24:29;4.55;;;2.40;;
34200;SDS011;20469;55.638;37.670;2023-12-20T08:26:57;4.00;;;2.30;;
34200;SDS011;20469;55.638;37.670;2023-12-20T08:29:25;6.25;;;2.70;;
34200;SDS011;20469;55.638;37.670;2023-12-20T08:31:55;3.22;;;2.03;;
34200;SDS011;20469;55.638;37.670;2023-12-20T08:34:23;6.07;;;2.28;;
34200;SDS011;20469;55.638;37.670;2023-12-20T08:36:51;4.00;;;2.13;;
34200;SDS011;20469;55.638;37.670;2023-12-20T08:39:19;4.90;;;2.88;;
34200;SDS011;20469;55.638;37.670;2023-12-20T08:41:47;5.95;;;2.85;;
34200;SDS011;20469;55.638;37.670;2023-12-20T08:44:15;5.65;;;2.88;;
34200;SDS011;20469;55.638;37.670;2023-12-20T08:46:43;4.28;;;2.70;;
34200;SDS011;20469;55.638;37.670;2023-12-20T08:49:11;4.82;;;2.92;;
34200;SDS011;20469;55.638;37.670;2023-12-20T08:51:39;4.28;;;2.70;;
34200;SDS011;20469;55.638;37.670;2023-12-20T08:54:08;6.45;;;2.83;;
34200;SDS011;20469;55.638;37.670;2023-12-20T08:56:36;5.50;;;2.65;;
34200;SDS011;20469;55.638;37.670;2023-12-20T08:59:04;6.22;;;3.50;;
34200;SDS011;20469;55.638;37.670;2023-12-20T09:01:32;4.10;;;2.47;;
34200;SDS011;20469;55.638;37.670;2023-12-20T09:04:00;3.78;;;2.42;;
34200;SDS011;20469;55.638;37.670;2023-12-20T09:06:28;5.70;;;2.67;;
34200;SDS011;20469;55.638;37.670;2023-12-20T09:08:56;4.47;;;2.75;;
34200;SDS011;20469;55.638;37.670;2023-12-20T09:11:24;3.58;;;2.50;;
34200;SDS011;20469;55.638;37.670;2023-12-20T09:13:52;4.60;;;2.80;;
34200;SDS011;20469;55.638;37.670;2023-12-20T09:16:20;5.38;;;2.80;;
34200;SDS011;20469;55.638;37.670;2023-12-20T09:18:48;5.20;;;2.75;;
34200;SDS011;20469;55.638;37.670;2023-12-20T09:21:18;4.70;;;2.67;;
34200;SDS011;20469;55.638;37.670;2023-12-20T09:23:46;5.03;;;2.88;;
34200;SDS011;20469;55.638;37.670;2023-12-20T09:26:15;4.38;;;2.67;;
34200;SDS011;20469;55.638;37.670;2023-12-20T09:28:44;5.15;;;2.58;;
34200;SDS011;20469;55.638;37.670;2023-12-20T09:31:12;3.28;;;2.47;;
34200;SDS011;20469;55.638;37.670;2023-12-20T09:33:46;3.67;;;2.53;;
34200;SDS011;20469;55.638;37.670;2023-12-20T09:36:14;4.57;;;2.80;;
34200;SDS011;20469;55.638;37.670;2023-12-20T09:38:43;4.88;;;2.63;;
34200;SDS011;20469;55.638;37.670;2023-12-20T09:41:13;4.85;;;2.70;;
34200;SDS011;20469;55.638;37.670;2023-12-20T09:43:41;4.32;;;2.50;;
34200;SDS011;20469;55.638;37.670;2023-12-20T09:46:10;5.90;;;3.30;;
34200;SDS011;20469;55.638;37.670;2023-12-20T09:48:39;4.03;;;2.80;;
34200;SDS011;20469;55.638;37.670;2023-12-20T09:51:08;4.60;;;2.83;;
34200;SDS011;20469;55.638;37.670;2023-12-20T09:53:35;4.78;;;2.78;;
34200;SDS011;20469;55.638;37.670;2023-12-20T09:56:05;3.75;;;2.67;;
34200;SDS011;20469;55.638;37.670;2023-12-20T09:58:35;2.45;;;1.58;;
34200;SDS011;20469;55.638;37.670;2023-12-20T10:01:04;2.95;;;2.03;;
34200;SDS011;20469;55.638;37.670;2023-12-20T10:03:32;4.32;;;2.17;;
34200;SDS011;20469;55.638;37.670;2023-12-20T10:06:00;7.57;;;2.10;;
34200;SDS011;20469;55.638;37.670;2023-12-20T10:08:28;3.50;;;2.05;;
34200;SDS011;20469;55.638;37.670;2023-12-20T10:10:59;4.32;;;2.92;;
34200;SDS011;20469;55.638;37.670;2023-12-20T10:13:29;15.10;;;10.38;;
34200;SDS011;20469;55.638;37.670;2023-12-20T10:15:57;2.30;;;1.88;;
34200;SDS011;20469;55.638;37.670;2023-12-20T10:18:26;4.93;;;2.17;;
34200;SDS011;20469;55.638;37.670;2023-12-20T10:21:05;2.47;;;1.77;;
34200;SDS011;20469;55.638;37.670;2023-12-20T10:23:37;3.65;;;2.20;;
34200;SDS011;20469;55.638;37.670;2023-12-20T10:26:06;3.20;;;1.77;;
34200;SDS011;20469;55.638;37.670;2023-12-20T10:28:34;3.25;;;2.00;;
34200;SDS011;20469;55.638;37.670;2023-12-20T10:31:03;2.72;;;1.60;;
34200;SDS011;20469;55.638;37.670;2023-12-20T10:33:31;3.20;;;1.83;;
34200;SDS011;20469;55.638;37.670;2023-12-20T10:36:00;4.38;;;1.85;;
34200;SDS011;20469;55.638;37.670;2023-12-20T10:38:28;1.70;;;1.60;;
34200;SDS011;20469;55.638;37.670;2023-12-20T10:40:57;5.70;;;1.90;;
34200;SDS011;20469;55.638;37.670;2023-12-20T10:43:26;3.88;;;2.28;;
34200;SDS011;20469;55.638;37.670;2023-12-20T10:45:57;3.55;;;1.70;;
34200;SDS011;20469;55.638;37.670;2023-12-20T10:48:26;4.38;;;2.50;;
34200;SDS011;20469;55.638;37.670;2023-12-20T10:50:57;4.57;;;2.22;;
34200;SDS011;20469;55.638;37.670;2023-12-20T10:53:25;3.60;;;1.80;;
34200;SDS011;20469;55.638;37.670;2023-12-20T10:55:55;5.10;;;2.75;;
34200;SDS011;20469;55.638;37.670;2023-12-20T10:58:25;4.03;;;2.10;;
34200;SDS011;20469;55.638;37.670;2023-12-20T11:01:00;5.35;;;2.35;;
34200;SDS011;20469;55.638;37.670;2023-12-20T11:03:31;4.82;;;2.45;;
34200;SDS011;20469;55.638;37.670;2023-12-20T11:06:03;5.05;;;2.38;;
34200;SDS011;20469;55.638;37.670;2023-12-20T11:11:04;4.93;;;2.33;;
34200;SDS011;20469;55.638;37.670;2023-12-20T11:13:34;5.22;;;2.50;;
34200;SDS011;20469;55.638;37.670;2023-12-20T11:16:04;4.82;;;2.17;;
34200;SDS011;20469;55.638;37.670;2023-12-20T11:18:32;4.72;;;2.13;;
34200;SDS011;20469;55.638;37.670;2023-12-20T11:21:21;4.82;;;2.03;;
34200;SDS011;20469;55.638;37.670;2023-12-20T11:23:48;4.32;;;2.30;;
34200;SDS011;20469;55.638;37.670;2023-12-20T11:26:16;3.30;;;2.30;;
34200;SDS011;20469;55.638;37.670;2023-12-20T11:28:49;4.63;;;2.00;;
34200;SDS011;20469;55.638;37.670;2023-12-20T11:31:18;3.45;;;1.90;;
34200;SDS011;20469;55.638;37.670;2023-12-20T11:33:46;3.33;;;1.90;;
34200;SDS011;20469;55.638;37.670;2023-12-20T11:36:18;6.00;;;2.35;;
34200;SDS011;20469;55.638;37.670;2023-12-20T11:38:55;3.50;;;1.95;;
34200;SDS011;20469;55.638;37.670;2023-12-20T11:41:24;4.20;;;2.47;;
34200;SDS011;20469;55.638;37.670;2023-12-20T11:43:52;2.45;;;1.80;;
34200;SDS011;20469;55.638;37.670;2023-12-20T11:46:21;3.95;;;1.80;;
34200;SDS011;20469;55.638;37.670;2023-12-20T11:48:51;4.07;;;2.08;;
34200;SDS011;20469;55.638;37.670;2023-12-20T11:51:19;5.03;;;2.08;;
34200;SDS011;20469;55.638;37.670;2023-12-20T11:53:51;2.03;;;1.63;;
34200;SDS011;20469;55.638;37.670;2023-12-20T11:56:20;2.83;;;1.83;;
34200;SDS011;20469;55.638;37.670;2023-12-20T11:58:48;3.45;;;2.03;;
34200;SDS011;20469;55.638;37.670;2023-12-20T12:01:19;2.55;;;1.60;;
34200;SDS011;20469;55.638;37.670;2023-12-20T12:03:48;2.55;;;1.55;;
34200;SDS011;20469;55.638;37.670;2023-12-20T12:06:17;3.17;;;1.40;;
34200;SDS011;20469;55.638;37.670;2023-12-20T12:08:45;5.72;;;1.90;;
34200;SDS011;20469;55.638;37.670;2023-12-20T12:11:13;2.08;;;1.50;;
34200;SDS011;20469;55.638;37.670;2023-12-20T12:13:41;2.53;;;1.60;;
34200;SDS011;20469;55.638;37.670;2023-12-20T12:16:09;3.45;;;1.70;;
34200;SDS011;20469;55.638;37.670;2023-12-20T12:18:37;2.53;;;1.50;;
34200;SDS011;20469;55.638;37.670;2023-12-20T12:21:08;4.22;;;2.08;;
34200;SDS011;20469;55.638;37.670;2023-12-20T12:23:44;3.33;;;1.48;;
34200;SDS011;20469;55.638;37.670;2023-12-20T12:26:12;2.58;;;1.35;;
34200;SDS011;20469;55.638;37.670;2023-12-20T12:28:41;2.88;;;1.40;;
34200;SDS011;20469;55.638;37.670;2023-12-20T12:31:13;3.28;;;1.33;;
34200;SDS011;20469;55.638;37.670;2023-12-20T12:33:44;2.25;;;1.30;;
34200;SDS011;20469;55.638;37.670;2023-12-20T12:36:12;4.25;;;1.88;;
34200;SDS011;20469;55.638;37.670;2023-12-20T12:38:42;2.25;;;1.40;;
34200;SDS011;20469;55.638;37.670;2023-12-20T12:41:12;4.07;;;1.92;;
34200;SDS011;20469;55.638;37.670;2023-12-20T12:43:41;3.10;;;1.80;;
34200;SDS011;20469;55.638;37.670;2023-12-20T12:46:09;3.85;;;1.58;;
34200;SDS011;20469;55.638;37.670;2023-12-20T12:48:38;1.95;;;1.58;;
34200;SDS011;20469;55.638;37.670;2023-12-20T12:51:09;2.42;;;1.60;;
34200;SDS011;20469;55.638;37.670;2023-12-20T12:53:40;2.88;;;1.73;;
34200;SDS011;20469;55.638;37.670;2023-12-20T12:56:08;4.55;;;1.80;;
34200;SDS011;20469;55.638;37.670;2023-12-20T12:58:35;4.60;;;1.70;;
34200;SDS011;20469;55.638;37.670;2023-12-20T13:01:03;2.10;;;1.35;;
34200;SDS011;20469;55.638;37.670;2023-12-20T13:03:31;5.78;;;1.67;;
34200;SDS011;20469;55.638;37.670;2023-12-20T13:06:00;3.80;;;1.65;;
34200;SDS011;20469;55.638;37.670;2023-12-20T13:08:28;4.32;;;1.67;;
34200;SDS011;20469;55.638;37.670;2023-12-20T13:10:56;5.43;;;2.05;;
34200;SDS011;20469;55.638;37.670;2023-12-20T13:13:27;1.98;;;1.48;;
34200;SDS011;20469;55.638;37.670;2023-12-20T13:15:55;3.08;;;1.90;;
34200;SDS011;20469;55.638;37.670;2023-12-20T13:18:23;2.28;;;1.50;;
34200;SDS011;20469;55.638;37.670;2023-12-20T13:20:51;2.20;;;1.67;;
34200;SDS011;20469;55.638;37.670;2023-12-20T13:23:19;2.63;;;1.70;;
34200;SDS011;20469;55.638;37.670;2023-12-20T13:25:47;1.73;;;1.40;;
34200;SDS011;20469;55.638;37.670;2023-12-20T13:28:15;3.30;;;1.40;;
34200;SDS011;20469;55.638;37.670;2023-12-20T13:30:43;3.75;;;1.73;;
34200;SDS011;20469;55.638;37.670;2023-12-20T13:33:11;5.75;;;1.55;;
34200;SDS011;20469;55.638;37.670;2023-12-20T13:35:39;2.13;;;1.30;;
34200;SDS011;20469;55.638;37.670;2023-12-20T13:38:06;3.15;;;1.77;;
34200;SDS011;20469;55.638;37.670;2023-12-20T13:40:34;3.63;;;1.60;;
34200;SDS011;20469;55.638;37.670;2023-12-20T13:43:02;3.17;;;1.38;;
34200;SDS011;20469;55.638;37.670;2023-12-20T13:45:30;3.72;;;1.70;;
34200;SDS011;20469;55.638;37.670;2023-12-20T13:47:58;2.05;;;1.48;;
34200;SDS011;20469;55.638;37.670;2023-12-20T13:50:26;3.17;;;1.63;;
34200;SDS011;20469;55.638;37.670;2023-12-20T13:52:54;2.63;;;1.60;;
34200;SDS011;20469;55.638;37.670;2023-12-20T13:55:22;5.38;;;1.52;;
34200;SDS011;20469;55.638;37.670;2023-12-20T13:57:52;3.55;;;1.38;;
34200;SDS011;20469;55.638;37.670;2023-12-20T14:00:22;2.30;;;1.50;;
34200;SDS011;20469;55.638;37.670;2023-12-20T14:02:50;2.67;;;1.58;;
34200;SDS011;20469;55.638;37.670;2023-12-20T14:05:18;2.22;;;1.58;;
34200;SDS011;20469;55.638;37.670;2023-12-20T14:07:47;3.10;;;1.70;;
34200;SDS011;20469;55.638;37.670;2023-12-20T14:10:15;4.90;;;2.22;;
34200;SDS011;20469;55.638;37.670;2023-12-20T14:12:44;7.65;;;3.50;;
34200;SDS011;20469;55.638;37.670;2023-12-20T14:15:12;3.22;;;1.88;;
34200;SDS011;20469;55.638;37.670;2023-12-20T14:17:40;3.13;;;1.67;;
34200;SDS011;20469;55.638;37.670;2023-12-20T14:20:12;3.63;;;1.70;;
34200;SDS011;20469;55.638;37.670;2023-12-20T14:22:40;3.80;;;2.00;;
34200;SDS011;20469;55.638;37.670;2023-12-20T14:25:11;2.45;;;2.00;;
34200;SDS011;20469;55.638;37.670;2023-12-20T14:27:41;2.78;;;1.70;;
34200;SDS011;20469;55.638;37.670;2023-12-20T14:32:41;1.95;;;1.48;;
34200;SDS011;20469;55.638;37.670;2023-12-20T14:35:09;4.75;;;2.13;;
34200;SDS011;20469;55.638;37.670;2023-12-20T14:37:38;3.10;;;1.95;;
34200;SDS011;20469;55.638;37.670;2023-12-20T14:40:07;3.55;;;2.00;;
34200;SDS011;20469;55.638;37.670;2023-12-20T14:42:38;4.05;;;2.90;;
34200;SDS011;20469;55.638;37.670;2023-12-20T14:45:05;4.95;;;2.80;;
34200;SDS011;20469;55.638;37.670;2023-12-20T14:47:34;4.53;;;2.25;;